This is the latest recevied weather packets stored in our database for station/object KI5NXU. If no packets are shown the sender has not sent any weather packets the latest 10 day(s).
| Time | Temp. | Humidity | Pressure | Rain* | Wind** | Luminosity | Snow |
|---|---|---|---|---|---|---|---|
| 1777851898 | 26.67° C | 36% | 1014.2 hPa | 0 mm | - | 154 W/m² | - |
| 1777851596 | 25.56° C | 35% | 1014.3 hPa | 0 mm | - | 161 W/m² | - |
| 1777851292 | 25.56° C | 39% | 1014.3 hPa | 0 mm | - | 77 W/m² | - |
| 1777850988 | 25.56° C | 37% | 1014.2 hPa | 0 mm | - | 87 W/m² | - |
| 1777850685 | 26.11° C | 37% | 1014.2 hPa | 0 mm | - | 140 W/m² | - |
| 1777850383 | 26.67° C | 35% | 1014.3 hPa | 0 mm | - | 196 W/m² | - |
| 1777850080 | 26.67° C | 35% | 1014.4 hPa | 0 mm | - | 255 W/m² | - |
| 1777849777 | 27.22° C | 35% | 1014.5 hPa | 0 mm | - | 239 W/m² | - |
| 1777849473 | 26.67° C | 34% | 1014.3 hPa | 0 mm | - | 260 W/m² | - |
| 1777849171 | 27.78° C | 32% | 1014.4 hPa | 0 mm | - | 296 W/m² | - |
| 1777848868 | 26.67° C | 35% | 1014.5 hPa | 0 mm | - | 313 W/m² | - |
| 1777848563 | 27.22° C | 32% | 1014.6 hPa | 0 mm | - | 336 W/m² | - |
| 1777848260 | 26.67° C | 34% | 1014.5 hPa | 0 mm | - | 320 W/m² | - |
| 1777847958 | 26.67° C | 36% | 1015 hPa | 0 mm | - | 305 W/m² | - |
| 1777847656 | 27.22° C | 34% | 1014.7 hPa | 0 mm | - | 287 W/m² | - |
| 1777847356 | 27.22° C | 32% | 1014.8 hPa | 0 mm | - | 389 W/m² | - |
| 1777847055 | 27.78° C | 34% | 1014.8 hPa | 0 mm | - | 229 W/m² | - |
| 1777846753 | 28.33° C | 32% | 1014.8 hPa | 0 mm | - | 283 W/m² | - |
| 1777846451 | 28.33° C | 32% | 1015.1 hPa | 0 mm | - | 420 W/m² | - |
| 1777846148 | 27.22° C | 37% | 1014.9 hPa | 0 mm | - | 467 W/m² | - |
| 1777845844 | 27.78° C | 33% | 1015 hPa | 0 mm | - | 416 W/m² | - |
| 1777845541 | 28.33° C | 32% | 1015.1 hPa | 0 mm | - | 494 W/m² | - |
| 1777845238 | 28.33° C | 33% | 1015.1 hPa | 0 mm | - | 497 W/m² | - |
| 1777844935 | 27.78° C | 32% | 1015.1 hPa | 0 mm | - | 456 W/m² | - |
| 1777844633 | 27.78° C | 32% | 1015 hPa | 0 mm | - | 548 W/m² | - |
* Rain latest hour (hover to see other rain measurements)
** Current wind speed in m/s (hover to see current wind gust speed)